気象予報士の航空気象 上海万博開幕

*All archives   *Admin

2010.04.30 (Fri)

上海万博開幕

 上海万博が開幕しました。


開幕は現地時刻、午後8時。


日本時間の9時です。


今日のお昼は、日本より暑く、25度の夏日。


ZSSS 300600Z 01004MPS 340V070 CAVOK 25/01 Q1018 NOSIG


開幕の時間は19度、いい天気。


ZSSS 301200Z 09004MPS 070V210 CAVOK 19/01 Q1018 NOSIG




 
ブログランキングに参加しています。
にほんブログ村 環境ブログ 天気・気象学へ
にほんブログ村
応援クリックをおねがします。


以下、アフィリエイトサイトです。



スポンサーサイト
23:58  |  時事  |  TB(0)  |  CM(0)  |  EDIT  |  Top↑

コメントを投稿する


 管理者だけに表示  (非公開コメント投稿可能)

▲PageTop

この記事のトラックバックURL

→http://weathereucalyptus.blog115.fc2.com/tb.php/471-7fd33b2b
この記事にトラックバックする(FC2ブログユーザー)

この記事へのトラックバック

▲PageTop

 | BLOGTOP |